createdAt,value
2017-12-04T00:02:07.782Z,93.24
2017-12-04T00:04:36.148Z,93.28
2017-12-04T00:07:03.695Z,93.26
2017-12-04T00:09:31.188Z,92.86
2017-12-04T00:11:58.679Z,92.88
2017-12-04T00:14:26.220Z,93.10
2017-12-04T00:16:53.708Z,93.32
2017-12-04T00:19:21.190Z,93.31
2017-12-04T00:21:48.710Z,93.44
2017-12-04T00:24:16.195Z,93.57
2017-12-04T00:26:43.710Z,93.67
2017-12-04T00:29:11.201Z,93.58
2017-12-04T00:31:38.716Z,93.44
2017-12-04T00:34:06.212Z,93.44
2017-12-04T00:36:33.701Z,93.44
2017-12-04T00:39:01.227Z,93.42
2017-12-04T00:41:28.721Z,93.55
2017-12-04T00:43:56.217Z,93.38
2017-12-04T00:46:23.743Z,93.29
2017-12-04T00:48:51.237Z,93.26
2017-12-04T00:51:18.730Z,93.42
2017-12-04T00:53:46.328Z,93.17
2017-12-04T00:56:13.823Z,93.25
2017-12-04T00:58:41.320Z,93.23
2017-12-04T01:01:08.826Z,93.32
2017-12-04T01:03:36.351Z,93.29
2017-12-04T01:06:03.923Z,93.40
2017-12-04T01:08:31.416Z,93.47
2017-12-04T01:10:58.943Z,93.56
2017-12-04T01:13:26.506Z,93.75
2017-12-04T01:15:54.018Z,93.84
2017-12-04T01:18:21.639Z,93.89
2017-12-04T01:20:49.136Z,93.91
2017-12-04T01:23:16.625Z,93.95
2017-12-04T01:25:44.158Z,93.96
2017-12-04T01:28:11.644Z,93.78
2017-12-04T01:30:39.219Z,93.70
2017-12-04T01:33:06.753Z,93.79
2017-12-04T01:35:34.248Z,93.98
2017-12-04T01:38:01.735Z,93.94
2017-12-04T01:40:29.270Z,94.03
2017-12-04T01:42:56.764Z,94.13
2017-12-04T01:45:24.277Z,94.35
2017-12-04T01:47:51.820Z,94.24
2017-12-04T01:50:19.326Z,94.25
2017-12-04T01:52:46.812Z,94.18
2017-12-04T01:55:14.346Z,94.08
2017-12-04T01:57:41.852Z,94.11
2017-12-04T02:00:09.431Z,93.99
2017-12-04T02:02:36.977Z,93.89
2017-12-04T02:05:04.467Z,93.89
2017-12-04T02:07:31.956Z,93.72
2017-12-04T02:09:59.488Z,93.64
2017-12-04T02:12:26.978Z,93.43
2017-12-04T02:14:54.534Z,93.45
2017-12-04T02:17:22.060Z,93.16
2017-12-04T02:19:49.543Z,92.97
2017-12-04T02:22:17.032Z,92.86
2017-12-04T02:24:45.276Z,92.64
2017-12-04T02:27:12.774Z,92.37
2017-12-04T02:29:40.258Z,92.42
2017-12-04T02:32:07.801Z,92.44
2017-12-04T02:34:35.284Z,92.53
2017-12-04T02:37:02.919Z,92.40
2017-12-04T02:39:30.514Z,92.46
2017-12-04T02:41:58.004Z,92.46
2017-12-04T02:44:25.598Z,92.51
2017-12-04T02:46:53.131Z,92.57
2017-12-04T02:49:20.618Z,92.46
2017-12-04T02:51:48.103Z,92.57
2017-12-04T02:54:15.646Z,92.44
2017-12-04T02:56:43.128Z,92.58
2017-12-04T02:59:10.619Z,92.53
2017-12-04T03:01:38.139Z,92.47
2017-12-04T03:04:05.626Z,92.89
2017-12-04T03:06:33.139Z,93.40
2017-12-04T03:09:00.668Z,93.63
2017-12-04T03:11:28.164Z,93.78
2017-12-04T03:13:55.650Z,93.77
2017-12-04T03:16:23.175Z,93.83
2017-12-04T03:18:50.663Z,93.65
2017-12-04T03:21:18.156Z,93.56
2017-12-04T03:23:45.679Z,93.63
2017-12-04T03:26:13.184Z,93.66
2017-12-04T03:28:40.722Z,93.58
2017-12-04T03:31:08.273Z,93.34
2017-12-04T03:33:35.765Z,93.33
2017-12-04T03:36:03.323Z,93.28
2017-12-04T03:38:30.835Z,93.25
2017-12-04T03:40:58.324Z,93.15
2017-12-04T03:43:25.807Z,93.11
2017-12-04T03:45:53.339Z,93.05
2017-12-04T03:48:20.835Z,92.81
2017-12-04T03:50:48.328Z,92.77
2017-12-04T03:53:15.860Z,92.99
2017-12-04T03:55:43.350Z,92.96
2017-12-04T03:58:10.868Z,92.84
2017-12-04T04:00:38.499Z,92.79
2017-12-04T04:03:06.051Z,92.72
2017-12-04T04:05:33.544Z,92.65
2017-12-04T04:08:01.083Z,92.52
2017-12-04T04:10:28.566Z,92.54
2017-12-04T04:12:56.053Z,92.61
2017-12-04T04:15:23.574Z,92.85
2017-12-04T04:17:51.059Z,92.57
2017-12-04T04:20:18.659Z,92.51
2017-12-04T04:22:46.208Z,92.32
2017-12-04T04:25:13.780Z,92.12
2017-12-04T04:27:41.269Z,92.12
2017-12-04T04:30:08.903Z,91.86
2017-12-04T04:32:36.392Z,91.73
2017-12-04T04:35:03.884Z,91.73
2017-12-04T04:37:31.416Z,91.55
2017-12-04T04:39:58.946Z,91.49
2017-12-04T04:42:26.438Z,91.46
2017-12-04T04:44:53.965Z,91.22
2017-12-04T04:47:21.456Z,91.28
2017-12-04T04:49:48.956Z,91.24
2017-12-04T04:52:16.507Z,90.91
2017-12-04T04:54:43.996Z,90.44
2017-12-04T04:57:11.484Z,90.37
2017-12-04T04:59:39.021Z,90.30
2017-12-04T05:02:06.511Z,90.55
2017-12-04T05:04:34.009Z,90.25
2017-12-04T05:07:01.587Z,90.17
2017-12-04T05:09:29.127Z,89.74
2017-12-04T05:11:56.655Z,89.70
2017-12-04T05:14:24.267Z,89.40
2017-12-04T05:16:51.754Z,89.29
2017-12-04T05:19:19.251Z,89.42
2017-12-04T05:21:46.825Z,89.46
2017-12-04T05:24:14.337Z,89.45
2017-12-04T05:26:41.825Z,89.11
2017-12-04T05:29:09.316Z,89.02
2017-12-04T05:31:36.836Z,88.98
2017-12-04T05:34:04.411Z,88.78
2017-12-04T05:36:31.898Z,88.73
2017-12-04T05:38:59.430Z,88.51
2017-12-04T05:41:26.914Z,88.54
2017-12-04T05:43:54.394Z,88.58
2017-12-04T05:46:21.936Z,88.82
2017-12-04T05:48:49.419Z,88.30
2017-12-04T05:51:16.911Z,88.43
2017-12-04T05:53:44.452Z,88.50
2017-12-04T05:56:11.954Z,88.11
2017-12-04T05:58:39.436Z,87.70
2017-12-04T06:01:06.971Z,87.77
2017-12-04T06:03:34.460Z,87.52
2017-12-04T06:06:01.972Z,87.63
2017-12-04T06:08:29.458Z,87.76
2017-12-04T06:10:56.945Z,87.52
2017-12-04T06:13:24.557Z,87.66
2017-12-04T06:15:52.038Z,87.71
2017-12-04T06:18:19.527Z,87.86
2017-12-04T06:20:47.034Z,87.77
2017-12-04T06:23:14.515Z,87.43
2017-12-04T06:25:42.043Z,87.39
2017-12-04T06:28:09.530Z,87.54
2017-12-04T06:30:37.023Z,87.57
2017-12-04T06:33:04.628Z,87.25
2017-12-04T06:35:32.115Z,87.18
2017-12-04T06:37:59.600Z,87.15
2017-12-04T06:40:27.127Z,87.14
2017-12-04T06:42:54.615Z,86.92
2017-12-04T06:45:22.199Z,87.19
2017-12-04T06:47:49.733Z,87.05
2017-12-04T06:50:17.320Z,86.87
2017-12-04T06:52:44.870Z,87.06
2017-12-04T06:55:12.404Z,87.10
2017-12-04T06:57:39.886Z,87.06
2017-12-04T07:00:07.375Z,87.07
2017-12-04T07:02:34.911Z,86.70
2017-12-04T07:05:02.475Z,86.84
2017-12-04T07:07:29.978Z,86.52
2017-12-04T07:09:57.710Z,86.45
2017-12-04T07:12:25.187Z,86.19
2017-12-04T07:14:52.671Z,86.50
2017-12-04T07:17:20.208Z,86.30
2017-12-04T07:19:47.691Z,86.50
2017-12-04T07:22:15.200Z,86.30
2017-12-04T07:24:42.760Z,86.32
2017-12-04T07:27:10.313Z,86.18
2017-12-04T07:29:37.796Z,86.10
2017-12-04T07:32:05.320Z,85.98
2017-12-04T07:34:32.796Z,86.25
2017-12-04T07:37:00.301Z,85.87
2017-12-04T07:39:27.823Z,85.90
2017-12-04T07:41:55.313Z,85.84
2017-12-04T07:44:22.795Z,86.07
2017-12-04T07:46:50.323Z,85.97
2017-12-04T07:49:17.827Z,85.79
2017-12-04T07:51:46.406Z,85.75
2017-12-04T07:54:13.915Z,85.10
2017-12-04T07:56:41.422Z,85.31
2017-12-04T07:59:08.925Z,85.46
2017-12-04T08:01:36.456Z,84.90
2017-12-04T08:04:03.979Z,85.02
2017-12-04T08:06:31.460Z,84.95
2017-12-04T08:08:58.955Z,85.18
2017-12-04T08:11:26.465Z,85.11
2017-12-04T08:13:53.976Z,85.18
2017-12-04T08:16:21.451Z,84.53
2017-12-04T08:18:49.561Z,84.59
2017-12-04T08:21:17.047Z,84.41
2017-12-04T08:23:44.532Z,83.76
2017-12-04T08:26:12.035Z,83.95
2017-12-04T08:28:39.520Z,83.59
2017-12-04T08:31:07.126Z,83.52
2017-12-04T08:33:34.612Z,83.63
2017-12-04T08:36:02.099Z,83.54
2017-12-04T08:38:29.612Z,83.21
2017-12-04T08:40:57.098Z,82.78
2017-12-04T08:43:24.586Z,82.91
2017-12-04T08:45:52.201Z,82.85
2017-12-04T08:48:19.760Z,82.17
2017-12-04T08:50:47.283Z,81.87
2017-12-04T08:53:14.776Z,81.32
2017-12-04T08:55:42.263Z,81.06
2017-12-04T08:58:09.775Z,80.83
2017-12-04T09:00:37.352Z,80.86
2017-12-04T09:03:04.835Z,81.24
2017-12-04T09:05:32.352Z,80.85
2017-12-04T09:07:59.852Z,80.43
2017-12-04T09:10:27.374Z,80.53
2017-12-04T09:12:54.879Z,80.25
2017-12-04T09:15:22.395Z,79.89
2017-12-04T09:17:49.958Z,80.08
2017-12-04T09:20:17.449Z,80.45
2017-12-04T09:22:44.963Z,80.55
2017-12-04T09:25:12.442Z,79.94
2017-12-04T09:27:39.918Z,80.22
2017-12-04T09:30:07.439Z,79.92
2017-12-04T09:32:34.927Z,79.19
2017-12-04T09:35:02.409Z,78.61
2017-12-04T09:37:29.943Z,78.18
2017-12-04T09:39:57.486Z,78.38
2017-12-04T09:42:25.064Z,79.23
2017-12-04T09:44:52.599Z,81.10
2017-12-04T09:47:20.096Z,82.03
2017-12-04T09:49:47.619Z,82.72
2017-12-04T09:52:15.136Z,82.36
2017-12-04T09:54:42.611Z,83.39
2017-12-04T09:57:10.108Z,86.40
2017-12-04T09:59:37.618Z,87.92
2017-12-04T10:02:05.115Z,90.14
2017-12-04T10:04:32.590Z,91.05
2017-12-04T10:07:00.131Z,91.43
2017-12-04T10:09:27.614Z,91.61
2017-12-04T10:11:55.091Z,90.92
2017-12-04T10:14:22.612Z,90.75
2017-12-04T10:16:50.093Z,90.45
2017-12-04T10:19:17.584Z,89.69
2017-12-04T10:21:45.268Z,89.67
2017-12-04T10:24:12.830Z,90.13
2017-12-04T10:26:40.340Z,90.11
2017-12-04T10:29:07.868Z,89.87
2017-12-04T10:31:35.349Z,89.90
2017-12-04T10:34:02.831Z,90.11
2017-12-04T10:36:30.345Z,90.28
2017-12-04T10:38:57.881Z,90.28
2017-12-04T10:41:25.416Z,90.38
2017-12-04T10:43:53.011Z,90.31
2017-12-04T10:46:20.504Z,90.47
2017-12-04T10:48:48.022Z,90.49
2017-12-04T10:51:15.583Z,89.96
2017-12-04T10:53:43.072Z,89.64
2017-12-04T10:56:10.589Z,89.42
2017-12-04T10:58:38.073Z,89.10
2017-12-04T11:01:05.620Z,89.03
2017-12-04T11:03:33.148Z,89.13
2017-12-04T11:06:00.733Z,88.75
2017-12-04T11:08:28.211Z,88.33
2017-12-04T11:10:55.724Z,87.91
2017-12-04T11:13:23.213Z,87.78
2017-12-04T11:15:50.697Z,87.74
2017-12-04T11:18:18.423Z,87.27
2017-12-04T11:20:45.959Z,86.76
2017-12-04T11:23:13.443Z,86.81
2017-12-04T11:25:40.971Z,87.02
2017-12-04T11:28:08.474Z,85.45
2017-12-04T11:30:35.961Z,85.74
2017-12-04T11:33:03.475Z,85.22
2017-12-04T11:35:30.983Z,85.20
2017-12-04T11:37:58.464Z,84.34
2017-12-04T11:40:25.997Z,83.77
2017-12-04T11:42:53.526Z,83.48
2017-12-04T11:45:21.022Z,83.09
2017-12-04T11:47:48.533Z,82.87
2017-12-04T11:50:16.064Z,82.54
2017-12-04T11:52:43.558Z,81.49
2017-12-04T11:55:11.100Z,82.09
2017-12-04T11:57:38.629Z,82.17
2017-12-04T12:00:06.134Z,81.25
2017-12-04T12:02:33.626Z,80.39
2017-12-04T12:05:01.146Z,78.26
2017-12-04T12:07:28.628Z,80.45
2017-12-04T12:09:56.116Z,80.16
2017-12-04T12:12:23.647Z,79.87
2017-12-04T12:14:51.184Z,78.54
2017-12-04T12:17:18.662Z,78.48
2017-12-04T12:19:46.292Z,78.93
2017-12-04T12:22:13.776Z,78.47
2017-12-04T12:24:41.256Z,77.84
2017-12-04T12:27:08.773Z,78.03
2017-12-04T12:29:36.259Z,76.15
2017-12-04T12:32:03.738Z,77.61
2017-12-04T12:34:31.254Z,77.24
2017-12-04T12:36:58.755Z,77.37
2017-12-04T12:39:26.242Z,77.34
2017-12-04T12:41:53.764Z,77.33
2017-12-04T12:44:21.252Z,77.50
2017-12-04T12:46:48.743Z,77.37
2017-12-04T12:49:16.260Z,77.83
2017-12-04T12:51:43.744Z,77.33
2017-12-04T12:54:11.235Z,77.32
2017-12-04T12:56:38.754Z,77.59
2017-12-04T12:59:06.230Z,77.70
2017-12-04T13:01:33.755Z,78.17
2017-12-04T13:04:01.243Z,78.29
2017-12-04T13:06:28.808Z,78.52
2017-12-04T13:08:56.439Z,78.32
2017-12-04T13:11:24.000Z,78.32
2017-12-04T13:13:51.498Z,78.50
2017-12-04T13:16:18.999Z,78.99
2017-12-04T13:18:46.579Z,79.14
2017-12-04T13:21:14.103Z,79.35
2017-12-04T13:23:41.595Z,78.50
2017-12-04T13:26:09.155Z,79.38
2017-12-04T13:28:36.679Z,79.76
2017-12-04T13:31:04.160Z,78.99
2017-12-04T13:33:43.620Z,79.40
2017-12-04T13:36:23.064Z,79.33
2017-12-04T13:38:50.576Z,79.47
2017-12-04T13:41:18.096Z,79.86
2017-12-04T13:43:45.571Z,78.93
2017-12-04T13:46:13.058Z,78.62
2017-12-04T13:48:40.570Z,79.15
2017-12-04T13:51:08.096Z,78.60
2017-12-04T13:53:35.700Z,78.22
2017-12-04T13:56:03.179Z,77.52
2017-12-04T13:58:30.717Z,78.00
2017-12-04T14:00:58.199Z,77.66
2017-12-04T14:03:25.789Z,77.81
2017-12-04T14:05:53.323Z,77.86
2017-12-04T14:08:20.812Z,77.82
2017-12-04T14:10:48.300Z,78.17
2017-12-04T14:13:15.798Z,77.99
2017-12-04T14:15:43.282Z,78.34
2017-12-04T14:18:10.806Z,78.35
2017-12-04T14:20:38.291Z,78.16
2017-12-04T14:23:05.877Z,78.17
2017-12-04T14:25:33.407Z,78.06
2017-12-04T14:28:00.895Z,78.15
2017-12-04T14:30:28.367Z,78.68
2017-12-04T14:32:55.891Z,78.36
2017-12-04T14:35:23.399Z,78.20
2017-12-04T14:37:50.883Z,78.77
2017-12-04T14:40:18.402Z,78.74
2017-12-04T14:42:45.888Z,78.67
2017-12-04T14:45:13.480Z,79.05
2017-12-04T14:47:41.035Z,79.10
2017-12-04T14:50:08.623Z,79.63
2017-12-04T14:52:36.331Z,79.64
2017-12-04T14:55:03.866Z,80.08
2017-12-04T14:57:31.344Z,80.19
2017-12-04T14:59:58.884Z,80.74
2017-12-04T15:02:26.367Z,80.93
2017-12-04T15:04:54.073Z,80.62
2017-12-04T15:07:21.596Z,80.83
2017-12-04T15:09:49.074Z,81.46
2017-12-04T15:12:16.560Z,81.71
2017-12-04T15:14:44.072Z,81.17
2017-12-04T15:17:11.547Z,80.94
2017-12-04T15:19:39.071Z,81.27
2017-12-04T15:22:06.577Z,81.13
2017-12-04T15:24:34.092Z,80.85
2017-12-04T15:27:01.576Z,81.20
2017-12-04T15:29:29.144Z,80.93
2017-12-04T15:31:56.709Z,80.88
2017-12-04T15:34:24.281Z,80.72
2017-12-04T15:36:51.820Z,80.63
2017-12-04T15:39:19.397Z,81.02
2017-12-04T15:41:46.936Z,81.06
2017-12-04T15:44:14.518Z,81.46
2017-12-04T15:46:42.037Z,81.58
2017-12-04T15:49:09.522Z,81.32
2017-12-04T15:51:37.014Z,80.78
2017-12-04T15:54:04.523Z,80.07
2017-12-04T15:56:32.007Z,79.75
2017-12-04T15:58:59.553Z,79.57
2017-12-04T16:01:27.048Z,79.05
2017-12-04T16:03:54.533Z,78.12
2017-12-04T16:06:22.063Z,77.92
2017-12-04T16:08:49.601Z,77.40
2017-12-04T16:11:17.083Z,78.26
2017-12-04T16:13:44.612Z,77.14
2017-12-04T16:16:12.090Z,76.88
2017-12-04T16:18:39.583Z,77.04
2017-12-04T16:21:07.107Z,77.20
2017-12-04T16:23:34.630Z,76.73
2017-12-04T16:26:02.114Z,76.20
2017-12-04T16:28:29.640Z,76.71
2017-12-04T16:30:57.173Z,76.83
2017-12-04T16:33:24.652Z,77.54
2017-12-04T16:35:52.178Z,77.36
2017-12-04T16:38:19.663Z,77.50
2017-12-04T16:40:47.208Z,77.89
2017-12-04T16:43:14.795Z,77.63
2017-12-04T16:45:42.282Z,78.19
2017-12-04T16:48:09.798Z,78.09
2017-12-04T16:50:37.375Z,78.11
2017-12-04T16:53:04.864Z,78.31
2017-12-04T16:55:32.497Z,78.54
2017-12-04T16:57:59.976Z,78.44
2017-12-04T17:00:27.506Z,78.39
2017-12-04T17:02:55.023Z,78.71
2017-12-04T17:05:22.504Z,78.73
2017-12-04T17:07:50.084Z,78.44
2017-12-04T17:10:17.591Z,78.77
2017-12-04T17:12:45.119Z,78.73
2017-12-04T17:15:12.603Z,78.91
2017-12-04T17:17:40.121Z,78.85
2017-12-04T17:20:07.607Z,78.97
2017-12-04T17:22:35.092Z,79.05
2017-12-04T17:25:02.695Z,78.93
2017-12-04T17:27:30.176Z,78.84
2017-12-04T17:29:57.655Z,78.92
2017-12-04T17:32:25.264Z,78.96
2017-12-04T17:34:52.744Z,79.29
2017-12-04T17:37:20.248Z,79.58
2017-12-04T17:39:47.776Z,79.70
2017-12-04T17:42:15.267Z,79.76
2017-12-04T17:44:42.757Z,79.87
2017-12-04T17:47:10.295Z,80.26
2017-12-04T17:49:37.786Z,80.53
2017-12-04T17:52:05.264Z,80.81
2017-12-04T17:54:32.835Z,80.61
2017-12-04T17:57:00.322Z,80.85
2017-12-04T17:59:27.802Z,80.90
2017-12-04T18:01:55.322Z,81.07
2017-12-04T18:04:22.815Z,81.17
2017-12-04T18:06:50.311Z,81.45
2017-12-04T18:09:17.930Z,81.92
2017-12-04T18:11:45.416Z,82.44
2017-12-04T18:14:12.907Z,84.18
2017-12-04T18:16:40.418Z,80.91
2017-12-04T18:19:07.900Z,79.85
2017-12-04T18:21:35.429Z,80.02
2017-12-04T18:24:02.919Z,80.71
2017-12-04T18:26:30.399Z,81.07
2017-12-04T18:28:57.917Z,81.51
2017-12-04T18:31:25.399Z,81.84
2017-12-04T18:33:52.887Z,81.51
2017-12-04T18:36:20.408Z,81.98
2017-12-04T18:38:47.930Z,82.08
2017-12-04T18:41:15.420Z,82.38
2017-12-04T18:43:42.936Z,82.14
2017-12-04T18:46:10.424Z,81.79
2017-12-04T18:48:37.940Z,81.91
2017-12-04T18:51:05.587Z,82.27
2017-12-04T18:53:33.202Z,82.26
2017-12-04T18:56:00.751Z,82.36
2017-12-04T18:58:28.324Z,82.60
2017-12-04T19:00:55.886Z,82.59
2017-12-04T19:03:23.400Z,82.52
2017-12-04T19:05:50.880Z,83.00
2017-12-04T19:08:18.360Z,83.11
2017-12-04T19:10:45.995Z,83.33
2017-12-04T19:13:13.480Z,83.00
2017-12-04T19:15:40.960Z,83.32
2017-12-04T19:18:08.496Z,83.43
2017-12-04T19:20:35.983Z,83.09
2017-12-04T19:23:03.464Z,82.99
2017-12-04T19:25:30.972Z,83.07
2017-12-04T19:27:58.462Z,82.99
2017-12-04T19:30:26.068Z,83.08
2017-12-04T19:32:53.628Z,82.83
2017-12-04T19:35:21.122Z,82.91
2017-12-04T19:37:48.748Z,83.00
2017-12-04T19:40:16.292Z,82.83
2017-12-04T19:42:43.777Z,82.60
2017-12-04T19:45:11.320Z,82.68
2017-12-04T19:47:38.818Z,82.68
2017-12-04T19:50:06.313Z,82.66
2017-12-04T19:52:33.823Z,82.69
2017-12-04T19:55:01.355Z,83.24
2017-12-04T19:57:28.879Z,82.89
2017-12-04T19:59:56.351Z,82.76
2017-12-04T20:02:23.840Z,82.97
2017-12-04T20:04:51.375Z,83.51
2017-12-04T20:07:18.866Z,83.23
2017-12-04T20:09:46.347Z,83.57
2017-12-04T20:12:13.875Z,83.74
2017-12-04T20:14:41.424Z,83.38
2017-12-04T20:17:08.908Z,83.57
2017-12-04T20:19:36.438Z,83.76
2017-12-04T20:22:03.935Z,83.92
2017-12-04T20:24:31.427Z,84.21
2017-12-04T20:26:59.124Z,84.14
2017-12-04T20:29:26.617Z,84.85
2017-12-04T20:31:54.096Z,84.59
2017-12-04T20:34:21.621Z,84.54
2017-12-04T20:36:49.166Z,84.68
2017-12-04T20:39:16.710Z,84.86
2017-12-04T20:41:44.233Z,85.40
2017-12-04T20:44:11.716Z,85.19
2017-12-04T20:46:39.200Z,85.31
2017-12-04T20:49:06.708Z,85.60
2017-12-04T20:51:34.235Z,85.50
2017-12-04T20:54:01.774Z,85.68
2017-12-04T20:56:30.557Z,85.28
2017-12-04T20:58:58.099Z,85.24
2017-12-04T21:01:25.658Z,85.41
2017-12-04T21:03:53.139Z,85.28
2017-12-04T21:06:20.669Z,84.90
2017-12-04T21:08:59.899Z,85.37
2017-12-04T21:11:39.495Z,84.75
2017-12-04T21:14:18.919Z,85.13
2017-12-04T21:16:58.482Z,85.01
2017-12-04T21:19:25.976Z,85.28
2017-12-04T21:21:53.462Z,85.20
2017-12-04T21:24:20.977Z,85.00
2017-12-04T21:26:48.581Z,84.89
2017-12-04T21:29:16.071Z,85.09
2017-12-04T21:31:43.555Z,85.12
2017-12-04T21:34:11.083Z,85.30
2017-12-04T21:36:38.563Z,85.63
2017-12-04T21:39:06.159Z,85.98
2017-12-04T21:41:33.714Z,85.67
2017-12-04T21:44:01.195Z,86.15
2017-12-04T21:46:28.710Z,85.90
2017-12-04T21:48:56.196Z,85.69
2017-12-04T21:51:23.686Z,85.76
2017-12-04T21:53:51.311Z,85.80
2017-12-04T21:56:18.795Z,85.75
2017-12-04T21:58:46.279Z,85.69
2017-12-04T22:01:13.804Z,85.65
2017-12-04T22:03:41.288Z,85.48
2017-12-04T22:06:08.796Z,86.05
2017-12-04T22:08:36.359Z,85.51
2017-12-04T22:11:04.258Z,84.80
2017-12-04T22:13:31.762Z,84.88
2017-12-04T22:15:59.245Z,85.34
2017-12-04T22:18:26.767Z,85.71
2017-12-04T22:20:54.355Z,85.93
2017-12-04T22:23:21.845Z,86.07
2017-12-04T22:25:49.367Z,86.47
2017-12-04T22:28:16.848Z,86.48
2017-12-04T22:30:44.331Z,86.51
2017-12-04T22:33:11.848Z,86.71
2017-12-04T22:35:39.335Z,86.92
2017-12-04T22:38:06.880Z,86.45
2017-12-04T22:40:34.404Z,86.30
2017-12-04T22:43:01.975Z,86.42
2017-12-04T22:45:29.468Z,86.61
2017-12-04T22:47:57.096Z,86.47
2017-12-04T22:50:24.572Z,86.37
2017-12-04T22:52:52.051Z,87.03
2017-12-04T22:55:19.565Z,86.63
2017-12-04T22:57:47.047Z,86.86
2017-12-04T23:00:26.289Z,87.05
2017-12-04T23:02:53.767Z,87.22
2017-12-04T23:05:21.300Z,87.24
2017-12-04T23:07:48.825Z,87.30
2017-12-04T23:10:16.308Z,87.35
2017-12-04T23:12:43.787Z,87.45
2017-12-04T23:15:11.294Z,87.35
2017-12-04T23:17:38.782Z,87.50
2017-12-04T23:20:06.319Z,87.65
2017-12-04T23:22:33.832Z,87.67
2017-12-04T23:25:01.311Z,87.60
2017-12-04T23:27:28.801Z,87.59
2017-12-04T23:29:56.605Z,87.90
2017-12-04T23:32:24.093Z,88.09
2017-12-04T23:34:51.574Z,87.85
2017-12-04T23:37:19.288Z,87.71
2017-12-04T23:39:46.768Z,87.86
2017-12-04T23:42:14.377Z,87.68
2017-12-04T23:44:41.911Z,87.60
2017-12-04T23:47:09.395Z,87.52
2017-12-04T23:49:36.911Z,87.88
2017-12-04T23:52:04.395Z,87.74
2017-12-04T23:54:31.886Z,87.70
2017-12-04T23:56:59.395Z,87.70
2017-12-04T23:59:26.877Z,87.78
